Time;durP1;ratioP1;P1;durP2;ratioP2;P2;SDS_P1;SDS_P2;PMS_P1;PMS_P2;Temp;Humidity;BMP_temperature;BMP_pressure;BME280_temperature;BME280_humidity;BME280_pressure;Samples;Min_cycle;Max_cycle;Signal;HPM_P1;HPM_P2
2023/05/05 00:00:14;0.00;0.00;0.62;0.00;0.00;0.62;1.50;1.40;;;27.10;21.20;;;;;;2259165;61;20381;-63
2023/05/05 00:02:59;0.00;0.00;0.62;0.00;0.00;0.62;1.63;1.10;;;27.10;21.20;;;;;;2260806;61;20368;-66
2023/05/05 00:05:44;0.00;0.00;0.62;0.00;0.00;0.62;1.93;1.23;;;27.10;21.10;;;;;;2260397;61;20416;-62
2023/05/05 00:08:28;0.00;0.00;0.62;0.00;0.00;0.62;1.60;1.30;;;27.10;21.20;;;;;;2260094;61;20385;-64
2023/05/05 00:11:14;0.00;0.00;0.62;0.00;0.00;0.62;1.70;1.23;;;27.10;21.20;;;;;;2259884;61;20403;-63
2023/05/05 00:13:58;0.00;0.00;0.62;0.00;0.00;0.62;1.67;1.27;;;27.10;21.20;;;;;;2260083;61;20372;-63
2023/05/05 00:16:44;0.00;0.00;0.62;0.00;0.00;0.62;2.43;1.50;;;27.10;21.20;;;;;;2260503;61;20369;-64
2023/05/05 00:19:29;0.00;0.00;0.62;0.00;0.00;0.62;2.33;1.70;;;27.00;21.10;;;;;;2260109;61;20408;-63
2023/05/05 00:22:13;0.00;0.00;0.62;0.00;0.00;0.62;1.70;1.10;;;27.10;21.20;;;;;;2259885;61;20450;-63
2023/05/05 00:24:58;0.00;0.00;0.62;0.00;0.00;0.62;2.00;1.43;;;27.10;21.20;;;;;;2260495;61;20372;-64
2023/05/05 00:27:42;0.00;0.00;0.62;0.00;0.00;0.62;1.60;1.20;;;27.00;21.10;;;;;;2260463;61;20392;-64
2023/05/05 00:30:27;0.00;0.00;0.62;0.00;0.00;0.62;1.60;1.30;;;27.10;21.20;;;;;;2258064;61;20392;-64
2023/05/05 00:33:14;0.00;0.00;0.62;0.00;0.00;0.62;1.90;1.43;;;27.10;21.10;;;;;;2259723;61;20419;-64
2023/05/05 00:35:58;0.00;0.00;0.62;0.00;0.00;0.62;1.73;1.17;;;27.00;21.10;;;;;;2260151;61;20412;-64
2023/05/05 00:38:44;0.00;0.00;0.62;0.00;0.00;0.62;2.03;1.83;;;27.00;21.10;;;;;;2259963;61;20372;-62
2023/05/05 00:41:28;0.00;0.00;0.62;0.00;0.00;0.62;1.63;1.40;;;27.10;21.20;;;;;;2259842;61;20475;-64
2023/05/05 00:44:14;0.00;0.00;0.62;0.00;0.00;0.62;2.20;1.77;;;27.00;21.10;;;;;;2259809;61;20360;-65
2023/05/05 00:46:59;0.00;0.00;0.62;0.00;0.00;0.62;2.10;1.30;;;27.00;21.10;;;;;;2260018;61;20882;-63
2023/05/05 00:49:45;0.00;0.00;0.62;0.00;0.00;0.62;2.23;1.50;;;27.00;21.10;;;;;;2259861;61;20384;-64
2023/05/05 00:52:30;0.00;0.00;0.62;0.00;0.00;0.62;2.27;1.47;;;27.00;21.10;;;;;;2259826;61;20392;-64
2023/05/05 00:55:15;0.00;0.00;0.62;0.00;0.00;0.62;1.70;1.20;;;27.00;21.10;;;;;;2259964;61;20357;-64
2023/05/05 00:58:01;0.00;0.00;0.62;0.00;0.00;0.62;2.13;1.40;;;27.00;21.10;;;;;;2260082;61;20620;-64
2023/05/05 01:00:47;0.00;0.00;0.62;0.00;0.00;0.62;1.90;1.30;;;27.00;21.10;;;;;;2259433;61;20925;-64
2023/05/05 01:03:32;0.00;0.00;0.62;0.00;0.00;0.62;1.87;1.33;;;27.00;21.10;;;;;;2260230;61;20384;-63
2023/05/05 01:06:37;0.00;0.00;0.62;0.00;0.00;0.62;2.00;1.30;;;27.00;21.10;;;;;;2259954;61;20764;-67
2023/05/05 01:09:37;0.00;0.00;0.62;0.00;0.00;0.62;1.80;1.43;;;27.00;21.10;;;;;;2259880;61;20389;-63
2023/05/05 01:12:36;0.00;0.00;0.62;0.00;0.00;0.62;1.97;1.50;;;27.00;21.10;;;;;;2259852;61;20905;-63
2023/05/05 01:15:30;0.00;0.00;0.62;0.00;0.00;0.62;1.83;1.40;;;27.00;21.10;;;;;;2259427;61;20442;-64
2023/05/05 01:18:26;0.00;0.00;0.62;0.00;0.00;0.62;2.00;1.60;;;27.00;21.10;;;;;;2260227;61;20837;-63
2023/05/05 01:21:16;0.00;0.00;0.62;0.00;0.00;0.62;1.83;1.47;;;27.00;21.10;;;;;;2259781;61;20376;-64
2023/05/05 01:24:32;0.00;0.00;0.62;0.00;0.00;0.62;2.23;1.30;;;27.00;21.10;;;;;;2259745;61;20364;-67
2023/05/05 01:27:44;0.00;0.00;0.62;0.00;0.00;0.62;1.67;1.27;;;26.90;21.00;;;;;;2260642;61;20408;-64
2023/05/05 01:30:56;0.00;0.00;0.62;0.00;0.00;0.62;1.70;1.50;;;27.00;21.10;;;;;;2259493;61;20447;-65
2023/05/05 01:33:49;0.00;0.00;0.62;0.00;0.00;0.62;2.00;1.50;;;27.00;21.10;;;;;;2260376;61;20419;-65
2023/05/05 01:36:38;0.00;0.00;0.62;0.00;0.00;0.62;3.17;1.87;;;27.00;21.10;;;;;;2259222;61;20388;-63
2023/05/05 01:39:29;0.00;0.00;0.62;0.00;0.00;0.62;1.97;1.67;;;26.90;21.00;;;;;;2259468;61;20377;-62
2023/05/05 01:42:17;0.00;0.00;0.62;0.00;0.00;0.62;2.07;1.40;;;26.90;21.00;;;;;;2260309;61;20373;-63
2023/05/05 01:45:06;0.00;0.00;0.62;0.00;0.00;0.62;1.50;1.30;;;26.90;21.00;;;;;;2259117;61;20416;-65
2023/05/05 01:47:53;0.00;0.00;0.62;0.00;0.00;0.62;1.93;1.27;;;26.90;21.00;;;;;;2260357;61;20364;-64
2023/05/05 01:50:41;0.00;0.00;0.62;0.00;0.00;0.62;1.70;1.50;;;26.90;21.00;;;;;;2259512;61;20393;-65
2023/05/05 01:53:27;0.00;0.00;0.62;0.00;0.00;0.62;2.40;1.80;;;26.90;21.00;;;;;;2260101;61;20423;-63
2023/05/05 01:56:14;0.00;0.00;0.62;0.00;0.00;0.62;1.77;1.43;;;26.90;21.60;;;;;;2260071;61;20412;-58
2023/05/05 01:59:00;0.00;0.00;0.62;0.00;0.00;0.62;1.70;1.30;;;26.90;21.00;;;;;;2258791;61;20475;-64
2023/05/05 02:01:47;0.00;0.00;0.62;0.00;0.00;0.62;2.80;1.60;;;26.90;21.00;;;;;;2259918;61;20925;-65
2023/05/05 02:04:35;0.00;0.00;0.62;0.00;0.00;0.62;2.03;1.33;;;26.90;21.00;;;;;;2259929;61;20516;-64
2023/05/05 02:07:23;0.00;0.00;0.62;0.00;0.00;0.62;3.20;1.57;;;26.90;21.00;;;;;;2260112;61;20430;-64
2023/05/05 02:10:11;0.00;0.00;0.62;0.00;0.00;0.62;1.80;1.33;;;26.90;21.00;;;;;;2259727;61;20450;-62
2023/05/05 02:12:57;0.00;0.00;0.62;0.00;0.00;0.62;1.70;1.40;;;26.90;21.00;;;;;;2259290;61;20373;-61
2023/05/05 02:15:43;0.00;0.00;0.62;0.00;0.00;0.62;1.60;1.40;;;26.90;21.00;;;;;;2259645;61;20364;-63
2023/05/05 02:18:32;0.00;0.00;0.62;0.00;0.00;0.62;1.83;1.40;;;26.90;21.00;;;;;;2259714;61;20392;-62
2023/05/05 02:21:17;0.00;0.00;0.62;0.00;0.00;0.62;1.80;1.60;;;26.90;21.00;;;;;;2258890;61;20517;-65
2023/05/05 02:24:04;0.00;0.00;0.62;0.00;0.00;0.62;1.93;1.60;;;26.90;21.00;;;;;;2259980;61;20456;-63
2023/05/05 02:26:50;0.00;0.00;0.62;0.00;0.00;0.62;1.80;1.40;;;26.80;21.00;;;;;;2259547;61;20905;-63
2023/05/05 02:29:44;0.00;0.00;0.62;0.00;0.00;0.62;2.40;1.60;;;26.80;21.00;;;;;;2259447;61;20901;-63
2023/05/05 02:32:33;0.00;0.00;0.62;0.00;0.00;0.62;2.00;1.70;;;26.80;21.00;;;;;;2259811;61;20515;-63
2023/05/05 02:35:23;0.00;0.00;0.62;0.00;0.00;0.62;1.90;1.50;;;26.80;21.00;;;;;;2259200;61;20940;-66
2023/05/05 02:38:16;0.00;0.00;0.62;0.00;0.00;0.62;1.80;1.60;;;26.80;21.00;;;;;;2259700;61;20357;-64
2023/05/05 02:41:06;0.00;0.00;0.62;0.00;0.00;0.62;1.40;1.10;;;26.80;21.00;;;;;;2259178;61;20389;-64
2023/05/05 02:43:54;0.00;0.00;0.62;0.00;0.00;0.62;1.70;1.50;;;26.80;21.00;;;;;;2258868;61;20361;-63
2023/05/05 02:46:41;0.00;0.00;0.62;0.00;0.00;0.62;1.60;1.40;;;26.80;21.10;;;;;;2259570;61;20428;-64
2023/05/05 02:49:26;0.00;0.00;0.62;0.00;0.00;0.62;1.80;1.47;;;26.80;21.00;;;;;;2259314;61;20385;-64
2023/05/05 02:52:16;0.00;0.00;0.62;0.00;0.00;0.62;1.90;1.23;;;26.80;21.00;;;;;;2259514;61;20412;-64
2023/05/05 02:55:04;0.00;0.00;0.62;0.00;0.00;0.62;2.40;1.40;;;26.80;21.00;;;;;;2259623;61;20411;-65
2023/05/05 02:58:05;0.00;0.00;0.62;0.00;0.00;0.62;2.00;1.40;;;26.80;21.00;;;;;;2259123;61;20803;-64
2023/05/05 03:01:10;0.00;0.00;0.62;0.00;0.00;0.62;2.30;1.53;;;26.80;21.00;;;;;;2259188;61;20452;-63
2023/05/05 03:04:05;0.00;0.00;0.62;0.00;0.00;0.62;1.87;1.63;;;26.80;21.00;;;;;;2259524;61;20361;-64
2023/05/05 03:06:57;0.00;0.00;0.62;0.00;0.00;0.62;2.33;1.53;;;26.80;21.00;;;;;;2259296;61;20403;-64
2023/05/05 03:09:54;0.00;0.00;0.62;0.00;0.00;0.62;1.60;1.30;;;26.80;21.00;;;;;;2259401;61;20461;-64
2023/05/05 03:12:45;0.00;0.00;0.62;0.00;0.00;0.62;2.50;1.37;;;26.80;21.00;;;;;;2259070;61;20423;-63
2023/05/05 03:15:44;0.00;0.00;0.62;0.00;0.00;0.62;2.00;1.53;;;26.80;21.00;;;;;;2259482;61;20360;-64
2023/05/05 03:18:31;0.00;0.00;0.62;0.00;0.00;0.62;2.07;1.40;;;26.80;21.00;;;;;;2259563;61;20488;-64
2023/05/05 03:21:19;0.00;0.00;0.62;0.00;0.00;0.62;1.93;1.33;;;26.70;20.90;;;;;;2259071;61;20377;-64
2023/05/05 03:24:13;0.00;0.00;0.62;0.00;0.00;0.62;2.13;1.63;;;26.70;20.90;;;;;;2259867;61;20362;-63
2023/05/05 03:26:59;0.00;0.00;0.62;0.00;0.00;0.62;1.67;1.40;;;26.70;20.90;;;;;;2259182;61;20639;-64
2023/05/05 03:29:51;0.00;0.00;0.62;0.00;0.00;0.62;1.90;1.70;;;26.70;20.90;;;;;;2259173;61;20525;-64
2023/05/05 03:32:37;0.00;0.00;0.62;0.00;0.00;0.62;2.10;1.50;;;26.70;20.90;;;;;;2259444;61;20412;-64
2023/05/05 03:35:22;0.00;0.00;0.62;0.00;0.00;0.62;1.80;1.60;;;26.70;20.90;;;;;;2259239;61;20360;-62
2023/05/05 03:38:07;0.00;0.00;0.62;0.00;0.00;0.62;1.87;1.33;;;26.70;21.50;;;;;;2259525;61;20395;-64
2023/05/05 03:40:52;0.00;0.00;0.62;0.00;0.00;0.62;1.73;1.30;;;26.70;20.90;;;;;;2259008;61;20401;-66
2023/05/05 03:43:40;0.00;0.00;0.62;0.00;0.00;0.62;1.90;1.37;;;26.70;20.90;;;;;;2258987;61;20373;-62
2023/05/05 03:46:25;0.00;0.00;0.62;0.00;0.00;0.62;1.73;1.30;;;26.70;20.90;;;;;;2259892;61;20373;-63
2023/05/05 03:49:12;0.00;0.00;0.62;0.00;0.00;0.62;2.00;1.80;;;26.70;20.90;;;;;;2258911;61;20393;-63
2023/05/05 03:51:58;0.00;0.00;0.62;0.00;0.00;0.62;1.93;1.37;;;26.70;20.90;;;;;;2259472;61;20841;-64
2023/05/05 03:54:44;0.00;0.00;0.62;0.00;0.00;0.62;1.80;1.40;;;26.70;20.90;;;;;;2259486;61;20364;-63
2023/05/05 03:57:30;0.00;0.00;0.62;0.00;0.00;0.62;1.60;1.30;;;26.70;20.90;;;;;;2258750;61;20912;-65
2023/05/05 04:00:15;0.00;0.00;0.62;0.00;0.00;0.62;1.90;1.60;;;26.60;20.90;;;;;;2259529;61;20439;-61
2023/05/05 04:03:03;0.00;0.00;0.62;0.00;0.00;0.62;1.60;1.20;;;26.60;20.90;;;;;;2259086;61;20485;-64
2023/05/05 04:05:49;0.00;0.00;0.62;0.00;0.00;0.62;2.53;1.60;;;26.60;20.90;;;;;;2259130;61;20423;-63
2023/05/05 04:08:34;0.00;0.00;0.62;0.00;0.00;0.62;1.60;1.30;;;26.60;20.90;;;;;;2259300;61;20877;-64
2023/05/05 04:11:20;0.00;0.00;0.62;0.00;0.00;0.62;2.13;1.47;;;26.60;20.90;;;;;;2259217;61;20431;-61
2023/05/05 04:14:05;0.00;0.00;0.62;0.00;0.00;0.62;1.90;1.67;;;26.60;21.40;;;;;;2259307;61;20765;-62
2023/05/05 04:16:50;0.00;0.00;0.62;0.00;0.00;0.62;1.70;1.40;;;26.60;20.90;;;;;;2259453;61;20817;-64
2023/05/05 04:19:34;0.00;0.00;0.62;0.00;0.00;0.62;3.37;1.37;;;26.60;20.90;;;;;;2258216;61;20353;-64
2023/05/05 04:22:22;0.00;0.00;0.62;0.00;0.00;0.62;1.97;1.30;;;26.60;20.90;;;;;;2259605;61;20875;-61
2023/05/05 04:25:08;0.00;0.00;0.62;0.00;0.00;0.62;1.77;1.23;;;26.60;20.90;;;;;;2259402;61;20419;-63
2023/05/05 04:27:53;0.00;0.00;0.62;0.00;0.00;0.62;1.90;1.57;;;26.60;20.90;;;;;;2259147;61;20400;-66
2023/05/05 04:30:38;0.00;0.00;0.62;0.00;0.00;0.62;1.80;1.60;;;26.60;20.90;;;;;;2259286;61;20389;-63
2023/05/05 04:33:23;0.00;0.00;0.62;0.00;0.00;0.62;1.90;1.50;;;26.60;20.90;;;;;;2259502;61;20369;-63
2023/05/05 04:36:08;0.00;0.00;0.62;0.00;0.00;0.62;1.73;1.10;;;26.60;20.90;;;;;;2259389;61;20369;-63
2023/05/05 04:38:54;0.00;0.00;0.62;0.00;0.00;0.62;1.40;1.10;;;26.60;20.90;;;;;;2259188;61;20951;-64
2023/05/05 04:41:39;0.00;0.00;0.62;0.00;0.00;0.62;1.50;1.20;;;26.60;20.90;;;;;;2258795;61;20440;-65
2023/05/05 04:44:24;0.00;0.00;0.62;0.00;0.00;0.62;1.60;1.20;;;26.60;20.90;;;;;;2259944;61;20368;-63
2023/05/05 04:47:09;0.00;0.00;0.62;0.00;0.00;0.62;2.03;1.40;;;26.60;20.90;;;;;;2260174;61;20369;-65
2023/05/05 04:49:54;0.00;0.00;0.62;0.00;0.00;0.62;2.27;1.57;;;26.60;20.90;;;;;;2259245;61;20413;-64
2023/05/05 04:52:40;0.00;0.00;0.62;0.00;0.00;0.62;1.77;1.43;;;26.60;20.90;;;;;;2260094;61;20419;-64
2023/05/05 04:55:27;0.00;0.00;0.62;0.00;0.00;0.62;2.00;1.60;;;26.50;20.90;;;;;;2259597;61;20361;-64
2023/05/05 04:58:12;0.00;0.00;0.62;0.00;0.00;0.62;1.87;1.60;;;26.50;20.90;;;;;;2260063;61;20423;-63
2023/05/05 05:00:57;0.00;0.00;0.62;0.00;0.00;0.62;2.63;1.60;;;26.50;20.90;;;;;;2260304;61;20432;-63
2023/05/05 05:03:41;0.00;0.00;0.62;0.00;0.00;0.62;1.80;1.20;;;26.50;20.90;;;;;;2259404;61;21021;-62
2023/05/05 05:06:26;0.00;0.00;0.62;0.00;0.00;0.62;1.90;1.40;;;26.50;20.90;;;;;;2260042;61;20419;-63
2023/05/05 05:09:10;0.00;0.00;0.62;0.00;0.00;0.62;2.37;1.77;;;26.50;20.90;;;;;;2259585;61;20785;-62
2023/05/05 05:12:02;0.00;0.00;0.62;0.00;0.00;0.62;2.20;1.60;;;26.50;20.90;;;;;;2259991;61;20431;-63
2023/05/05 05:14:47;0.00;0.00;0.62;0.00;0.00;0.62;2.00;1.37;;;26.50;20.90;;;;;;2259922;61;20377;-64
2023/05/05 05:17:31;0.00;0.00;0.62;0.00;0.00;0.62;2.00;1.50;;;26.50;20.90;;;;;;2259855;61;20411;-65
2023/05/05 05:20:17;0.00;0.00;0.62;0.00;0.00;0.62;3.00;1.60;;;26.50;21.00;;;;;;2259343;61;20462;-64
2023/05/05 05:23:03;0.00;0.00;0.62;0.00;0.00;0.62;2.33;2.03;;;26.50;21.00;;;;;;2260068;61;20411;-64
2023/05/05 05:25:50;0.00;0.00;0.62;0.00;0.00;0.62;2.10;1.57;;;26.50;21.00;;;;;;2258994;61;20361;-64
2023/05/05 05:28:38;0.00;0.00;0.62;0.00;0.00;0.62;2.10;1.60;;;26.50;21.00;;;;;;2260076;61;20449;-64
2023/05/05 05:31:23;0.00;0.00;0.62;0.00;0.00;0.62;1.87;1.50;;;26.50;21.00;;;;;;2259695;61;20495;-64
2023/05/05 05:34:08;0.00;0.00;0.62;0.00;0.00;0.62;2.57;1.80;;;26.50;21.00;;;;;;2259215;61;20408;-64
2023/05/05 05:36:54;0.00;0.00;0.62;0.00;0.00;0.62;2.73;1.60;;;26.50;21.00;;;;;;2260090;61;20403;-64
2023/05/05 05:39:39;0.00;0.00;0.62;0.00;0.00;0.62;2.60;2.40;;;26.50;21.00;;;;;;2259029;61;20361;-65
2023/05/05 05:42:24;0.00;0.00;0.62;0.00;0.00;0.62;2.17;1.63;;;26.50;21.00;;;;;;2259633;61;20459;-63
2023/05/05 05:45:11;0.00;0.00;0.62;0.00;0.00;0.62;2.13;1.93;;;26.50;21.00;;;;;;2259760;61;20436;-64
2023/05/05 05:47:57;0.00;0.00;0.62;0.00;0.00;0.62;2.50;1.90;;;26.50;21.00;;;;;;2259228;61;20361;-61
2023/05/05 05:50:42;0.00;0.00;0.62;0.00;0.00;0.62;3.93;2.20;;;26.50;21.00;;;;;;2259432;61;20396;-63
2023/05/05 05:53:27;0.00;0.00;0.62;0.00;0.00;0.62;2.73;2.03;;;26.50;21.00;;;;;;2259323;61;20377;-64
2023/05/05 05:56:12;0.00;0.00;0.62;0.00;0.00;0.62;2.53;1.80;;;26.50;21.00;;;;;;2259284;61;20420;-64
2023/05/05 05:58:58;0.00;0.00;0.62;0.00;0.00;0.62;2.40;1.90;;;26.50;21.00;;;;;;2259610;61;20392;-64
2023/05/05 06:01:44;0.00;0.00;0.62;0.00;0.00;0.62;2.30;1.70;;;26.50;21.00;;;;;;2259733;61;20947;-67
2023/05/05 06:04:30;0.00;0.00;0.62;0.00;0.00;0.62;2.50;1.90;;;26.50;21.00;;;;;;2259572;61;20364;-64
2023/05/05 06:07:15;0.00;0.00;0.62;0.00;0.00;0.62;2.50;2.00;;;26.50;21.00;;;;;;2259843;61;20556;-61
2023/05/05 06:10:00;0.00;0.00;0.62;0.00;0.00;0.62;2.60;1.93;;;26.50;21.00;;;;;;2258628;61;20385;-64
2023/05/05 06:12:44;0.00;0.00;0.62;0.00;0.00;0.62;2.40;1.67;;;26.50;21.00;;;;;;2260292;61;20402;-64
2023/05/05 06:15:30;0.00;0.00;0.62;0.00;0.00;0.62;4.10;2.33;;;26.50;21.00;;;;;;2260136;61;20404;-64
2023/05/05 06:18:16;0.00;0.00;0.62;0.00;0.00;0.62;2.50;1.90;;;26.50;21.00;;;;;;2258989;61;20369;-64
2023/05/05 06:21:01;0.00;0.00;0.62;0.00;0.00;0.62;2.53;1.97;;;26.50;21.00;;;;;;2259918;61;20469;-62
2023/05/05 06:23:47;0.00;0.00;0.62;0.00;0.00;0.62;2.73;2.00;;;26.50;21.00;;;;;;2259493;61;20377;-60
2023/05/05 06:26:32;0.00;0.00;0.62;0.00;0.00;0.62;2.27;1.90;;;26.50;21.00;;;;;;2259234;61;20921;-63
2023/05/05 06:29:17;0.00;0.00;0.62;0.00;0.00;0.62;2.93;1.80;;;26.50;21.00;;;;;;2259604;61;20971;-63
2023/05/05 06:32:02;0.00;0.00;0.62;0.00;0.00;0.62;2.53;2.13;;;26.50;21.00;;;;;;2259572;61;20380;-63
2023/05/05 06:34:48;0.00;0.00;0.62;0.00;0.00;0.62;2.30;1.90;;;26.50;21.00;;;;;;2259969;61;20414;-63
2023/05/05 06:37:32;0.00;0.00;0.62;0.00;0.00;0.62;2.80;2.47;;;26.50;21.00;;;;;;2260216;61;20370;-61
2023/05/05 06:40:17;0.00;0.00;0.62;0.00;0.00;0.62;3.07;2.23;;;26.50;21.00;;;;;;2259071;61;20593;-62
2023/05/05 06:43:02;0.00;0.00;0.62;0.00;0.00;0.62;2.60;2.20;;;26.50;21.00;;;;;;2259790;61;21196;-65
2023/05/05 06:45:52;0.00;0.00;0.62;0.00;0.00;0.62;3.07;2.30;;;26.50;21.00;;;;;;2260164;61;20366;-64
2023/05/05 06:48:37;0.00;0.00;0.62;0.00;0.00;0.62;3.10;1.90;;;26.50;21.00;;;;;;2259380;61;20357;-63
2023/05/05 06:51:23;0.00;0.00;0.62;0.00;0.00;0.62;2.40;1.90;;;26.50;21.00;;;;;;2260048;61;20913;-63
2023/05/05 06:54:08;0.00;0.00;0.62;0.00;0.00;0.62;2.83;2.20;;;26.50;21.00;;;;;;2259461;61;20389;-65
2023/05/05 06:56:53;0.00;0.00;0.62;0.00;0.00;0.62;2.80;2.10;;;26.50;21.00;;;;;;2260333;61;20435;-64
2023/05/05 06:59:38;0.00;0.00;0.62;0.00;0.00;0.62;2.40;1.70;;;26.50;21.00;;;;;;2259613;61;20360;-62
2023/05/05 07:02:22;0.00;0.00;0.62;0.00;0.00;0.62;2.30;2.10;;;26.50;21.00;;;;;;2259658;61;20380;-61
2023/05/05 07:05:08;0.00;0.00;0.62;0.00;0.00;0.62;3.00;2.20;;;26.50;21.00;;;;;;2259819;61;20358;-65
2023/05/05 07:07:56;0.00;0.00;0.62;0.00;0.00;0.62;2.70;2.10;;;26.50;21.50;;;;;;2259924;61;20928;-64
2023/05/05 07:10:41;0.00;0.00;0.62;0.00;0.00;0.62;2.60;2.20;;;26.50;21.00;;;;;;2259131;61;20951;-61
2023/05/05 07:13:25;0.00;0.00;0.62;0.00;0.00;0.62;2.80;2.10;;;26.50;21.00;;;;;;2260039;61;20928;-64
2023/05/05 07:16:10;0.00;0.00;0.62;0.00;0.00;0.62;2.20;1.90;;;26.50;21.00;;;;;;2259565;61;20997;-62
2023/05/05 07:18:55;0.00;0.00;0.62;0.00;0.00;0.62;2.20;1.90;;;26.50;21.00;;;;;;2259024;61;20407;-63
2023/05/05 07:21:40;0.00;0.00;0.62;0.00;0.00;0.62;2.90;2.60;;;26.40;21.00;;;;;;2260204;61;20376;-64
2023/05/05 07:24:26;0.00;0.00;0.62;0.00;0.00;0.62;2.83;2.33;;;26.50;21.00;;;;;;2258914;61;20376;-64
2023/05/05 07:27:11;0.00;0.00;0.62;0.00;0.00;0.62;2.70;2.13;;;26.50;21.00;;;;;;2260059;61;20940;-63
2023/05/05 07:29:56;0.00;0.00;0.62;0.00;0.00;0.62;3.00;2.17;;;26.40;21.00;;;;;;2259554;61;20847;-64
2023/05/05 07:32:41;0.00;0.00;0.62;0.00;0.00;0.62;2.23;1.83;;;26.50;21.00;;;;;;2259332;61;20786;-64
2023/05/05 07:35:26;0.00;0.00;0.62;0.00;0.00;0.62;2.53;2.00;;;26.50;21.00;;;;;;2259968;61;20368;-65
2023/05/05 07:38:11;0.00;0.00;0.62;0.00;0.00;0.62;2.70;2.33;;;26.50;21.00;;;;;;2259555;61;20887;-64
2023/05/05 07:40:57;0.00;0.00;0.62;0.00;0.00;0.62;2.00;1.60;;;26.40;21.00;;;;;;2259324;61;20380;-65
2023/05/05 07:43:41;0.00;0.00;0.62;0.00;0.00;0.62;3.97;2.30;;;26.50;21.10;;;;;;2259974;61;20373;-65
2023/05/05 07:46:26;0.00;0.00;0.62;0.00;0.00;0.62;2.40;2.20;;;26.50;21.10;;;;;;2258948;61;20368;-64
2023/05/05 07:49:10;0.00;0.00;0.62;0.00;0.00;0.62;2.20;2.00;;;26.50;21.10;;;;;;2259591;61;20461;-64
2023/05/05 07:51:55;0.00;0.00;0.62;0.00;0.00;0.62;3.27;2.40;;;26.50;21.10;;;;;;2260055;61;20548;-65
2023/05/05 07:54:41;0.00;0.00;0.62;0.00;0.00;0.62;2.83;2.33;;;26.40;21.00;;;;;;2259022;61;20776;-64
2023/05/05 07:57:27;0.00;0.00;0.62;0.00;0.00;0.62;2.83;2.30;;;26.50;21.10;;;;;;2260156;61;20369;-64
2023/05/05 08:00:13;0.00;0.00;0.62;0.00;0.00;0.62;2.70;2.13;;;26.50;21.10;;;;;;2259021;61;20388;-64
2023/05/05 08:02:58;0.00;0.00;0.62;0.00;0.00;0.62;2.23;1.80;;;26.40;21.00;;;;;;2259874;61;20400;-64
2023/05/05 08:05:43;0.00;0.00;0.62;0.00;0.00;0.62;2.40;2.20;;;26.50;21.10;;;;;;2259703;61;20361;-64
2023/05/05 08:08:27;0.00;0.00;0.62;0.00;0.00;0.62;3.13;2.07;;;26.50;21.10;;;;;;2259259;61;20372;-64
2023/05/05 08:11:12;0.00;0.00;0.62;0.00;0.00;0.62;2.30;1.90;;;26.50;21.10;;;;;;2259566;61;20976;-63
2023/05/05 08:13:58;0.00;0.00;0.62;0.00;0.00;0.62;2.63;2.27;;;26.40;21.00;;;;;;2259849;61;20393;-64
2023/05/05 08:16:43;0.00;0.00;0.62;0.00;0.00;0.62;2.30;1.80;;;26.40;21.00;;;;;;2259135;61;20889;-64
2023/05/05 08:19:28;0.00;0.00;0.62;0.00;0.00;0.62;2.60;2.30;;;26.50;21.10;;;;;;2260213;61;20356;-64
2023/05/05 08:22:13;0.00;0.00;0.62;0.00;0.00;0.62;2.40;2.13;;;26.50;21.10;;;;;;2260256;61;20377;-64
2023/05/05 08:24:57;0.00;0.00;0.62;0.00;0.00;0.62;2.83;2.27;;;26.50;21.10;;;;;;2260007;61;20400;-64
2023/05/05 08:27:43;0.00;0.00;0.62;0.00;0.00;0.62;2.30;1.97;;;26.50;21.10;;;;;;2260493;61;20443;-65
2023/05/05 08:30:29;0.00;0.00;0.62;0.00;0.00;0.62;1.90;1.60;;;26.50;21.10;;;;;;2259720;61;20392;-64
2023/05/05 08:33:14;0.00;0.00;0.62;0.00;0.00;0.62;2.17;1.97;;;26.50;21.10;;;;;;2260505;61;20373;-65
2023/05/05 08:35:59;0.00;0.00;0.62;0.00;0.00;0.62;2.30;2.10;;;26.50;21.20;;;;;;2260223;61;20364;-64
2023/05/05 08:38:44;0.00;0.00;0.62;0.00;0.00;0.62;3.20;2.30;;;26.50;21.10;;;;;;2259791;61;20357;-64
2023/05/05 08:41:29;0.00;0.00;0.62;0.00;0.00;0.62;3.07;2.00;;;26.50;21.10;;;;;;2260419;61;20408;-64
2023/05/05 08:44:14;0.00;0.00;0.62;0.00;0.00;0.62;3.00;2.10;;;26.50;21.10;;;;;;2260179;61;20897;-65
2023/05/05 08:47:01;0.00;0.00;0.62;0.00;0.00;0.62;2.40;1.80;;;26.50;21.10;;;;;;2260232;61;20423;-65
2023/05/05 08:49:46;0.00;0.00;0.62;0.00;0.00;0.62;2.20;2.00;;;26.50;21.10;;;;;;2259951;61;20797;-64
2023/05/05 08:52:39;0.00;0.00;0.62;0.00;0.00;0.62;2.80;1.83;;;26.40;21.10;;;;;;2260177;61;20901;-64
2023/05/05 08:55:26;0.00;0.00;0.62;0.00;0.00;0.62;2.30;1.80;;;26.50;21.10;;;;;;2260368;61;20799;-64
2023/05/05 08:58:12;0.00;0.00;0.62;0.00;0.00;0.62;2.20;1.80;;;26.40;21.10;;;;;;2260285;61;20448;-64
2023/05/05 09:00:57;0.00;0.00;0.62;0.00;0.00;0.62;3.03;2.13;;;26.50;21.20;;;;;;2259413;61;20372;-65
2023/05/05 09:03:44;0.00;0.00;0.62;0.00;0.00;0.62;4.10;2.27;;;26.50;21.20;;;;;;2260394;61;20636;-65
2023/05/05 09:06:31;0.00;0.00;0.62;0.00;0.00;0.62;2.23;1.80;;;26.50;21.20;;;;;;2260378;61;20768;-66
2023/05/05 09:09:16;0.00;0.00;0.62;0.00;0.00;0.62;2.50;2.30;;;26.50;21.20;;;;;;2259780;61;20781;-64
2023/05/05 09:12:01;0.00;0.00;0.62;0.00;0.00;0.62;2.60;2.00;;;26.50;21.20;;;;;;2260432;61;20376;-64
2023/05/05 09:14:46;0.00;0.00;0.62;0.00;0.00;0.62;2.40;1.93;;;26.50;21.20;;;;;;2259877;61;20484;-64
2023/05/05 09:17:31;0.00;0.00;0.62;0.00;0.00;0.62;2.80;2.10;;;26.50;21.20;;;;;;2260314;61;20715;-64
2023/05/05 09:20:17;0.00;0.00;0.62;0.00;0.00;0.62;2.60;1.90;;;26.50;21.20;;;;;;2259936;61;20381;-65
2023/05/05 09:23:08;0.00;0.00;0.62;0.00;0.00;0.62;2.20;1.80;;;26.50;21.20;;;;;;2259724;61;20917;-64
2023/05/05 09:26:11;0.00;0.00;0.62;0.00;0.00;0.62;2.40;1.90;;;26.50;21.20;;;;;;2260473;61;20356;-65
2023/05/05 09:28:56;0.00;0.00;0.62;0.00;0.00;0.62;2.20;1.80;;;26.50;21.20;;;;;;2259728;61;20414;-65
2023/05/05 09:31:41;0.00;0.00;0.62;0.00;0.00;0.62;2.70;1.73;;;26.50;21.20;;;;;;2259662;61;20474;-65
2023/05/05 09:34:26;0.00;0.00;0.62;0.00;0.00;0.62;2.00;1.80;;;26.50;21.20;;;;;;2259878;61;20956;-66
2023/05/05 09:37:26;0.00;0.00;0.62;0.00;0.00;0.62;4.10;1.73;;;26.50;21.20;;;;;;2259888;61;20457;-64
2023/05/05 09:40:14;0.00;0.00;0.62;0.00;0.00;0.62;2.90;2.00;;;26.50;21.20;;;;;;2259888;61;20381;-65
2023/05/05 09:43:01;0.00;0.00;0.62;0.00;0.00;0.62;2.23;1.80;;;26.50;21.20;;;;;;2260557;61;20396;-64
2023/05/05 09:45:47;0.00;0.00;0.62;0.00;0.00;0.62;2.13;1.63;;;26.50;21.20;;;;;;2259652;61;20362;-65
2023/05/05 09:48:32;0.00;0.00;0.62;0.00;0.00;0.62;2.30;1.67;;;26.50;21.20;;;;;;2260368;61;20415;-64
2023/05/05 09:51:28;0.00;0.00;0.62;0.00;0.00;0.62;2.23;1.83;;;26.50;21.30;;;;;;2259171;61;20440;-65
2023/05/05 09:54:25;0.00;0.00;0.62;0.00;0.00;0.62;2.40;1.93;;;26.50;21.20;;;;;;2260103;61;20361;-64
2023/05/05 09:57:25;0.00;0.00;0.62;0.00;0.00;0.62;2.37;1.67;;;26.50;21.20;;;;;;2260295;61;20373;-67
2023/05/05 10:00:13;0.00;0.00;0.62;0.00;0.00;0.62;2.73;2.00;;;26.50;21.20;;;;;;2259139;61;20371;-64
2023/05/05 10:03:01;0.00;0.00;0.62;0.00;0.00;0.62;2.10;1.57;;;26.50;21.30;;;;;;2260146;61;20754;-65
2023/05/05 10:05:49;0.00;0.00;0.62;0.00;0.00;0.62;2.47;1.93;;;26.60;21.30;;;;;;2260080;61;20361;-65
2023/05/05 10:08:34;0.00;0.00;0.62;0.00;0.00;0.62;1.97;1.53;;;26.60;21.30;;;;;;2260051;61;20361;-65
2023/05/05 10:11:20;0.00;0.00;0.62;0.00;0.00;0.62;2.20;1.70;;;26.60;21.30;;;;;;2259850;61;20429;-64
2023/05/05 10:14:06;0.00;0.00;0.62;0.00;0.00;0.62;2.07;1.63;;;26.60;21.30;;;;;;2259792;61;20365;-64
2023/05/05 10:16:53;0.00;0.00;0.62;0.00;0.00;0.62;2.03;1.50;;;26.60;21.30;;;;;;2260294;61;20380;-63
2023/05/05 10:19:39;0.00;0.00;0.62;0.00;0.00;0.62;2.17;1.83;;;26.60;21.30;;;;;;2259559;61;20792;-66
2023/05/05 10:22:25;0.00;0.00;0.62;0.00;0.00;0.62;3.00;1.67;;;26.60;21.30;;;;;;2259537;61;20416;-64
2023/05/05 10:25:13;0.00;0.00;0.62;0.00;0.00;0.62;1.80;1.60;;;26.60;21.30;;;;;;2260143;61;20368;-65
2023/05/05 10:28:03;0.00;0.00;0.62;0.00;0.00;0.62;2.27;1.60;;;26.60;21.30;;;;;;2260093;61;20423;-69
2023/05/05 10:30:52;0.00;0.00;0.62;0.00;0.00;0.62;2.57;1.50;;;26.60;21.30;;;;;;2259548;61;20393;-64
2023/05/05 10:33:46;0.00;0.00;0.62;0.00;0.00;0.62;2.27;1.70;;;26.60;21.30;;;;;;2260005;61;20466;-66
2023/05/05 10:36:32;0.00;0.00;0.62;0.00;0.00;0.62;2.17;1.70;;;26.60;21.30;;;;;;2259562;61;20361;-65
2023/05/05 10:39:18;0.00;0.00;0.62;0.00;0.00;0.62;2.10;1.57;;;26.60;21.30;;;;;;2259903;61;20393;-65
2023/05/05 10:42:04;0.00;0.00;0.62;0.00;0.00;0.62;2.60;1.90;;;26.60;21.30;;;;;;2259738;61;20460;-64
2023/05/05 10:44:50;0.00;0.00;0.62;0.00;0.00;0.62;2.50;1.97;;;26.60;21.30;;;;;;2259303;61;20925;-63
2023/05/05 10:47:37;0.00;0.00;0.62;0.00;0.00;0.62;2.00;1.60;;;26.60;21.30;;;;;;2260066;61;20365;-65
2023/05/05 10:50:31;0.00;0.00;0.62;0.00;0.00;0.62;2.50;1.80;;;26.60;21.30;;;;;;2259223;61;20435;-65
2023/05/05 10:53:21;0.00;0.00;0.62;0.00;0.00;0.62;2.40;1.90;;;26.60;21.30;;;;;;2259931;61;20763;-65
2023/05/05 10:56:16;0.00;0.00;0.62;0.00;0.00;0.62;2.30;1.60;;;26.60;21.30;;;;;;2260212;61;20588;-65
2023/05/05 10:59:01;0.00;0.00;0.62;0.00;0.00;0.62;2.20;1.60;;;26.60;21.30;;;;;;2259049;61;20784;-64